PWSweather.com
Personal Weather Stations
Station Observations
WISCHPK61
Green Bay Schmitt Park, Green Bay, WI 54311

Green Bay Schmitt ParkGreen Bay, WI 54311

Lat: 44.514277, Lon: -87.935067

Elevation: 735

Station Type: Acu Rite Pro Weather Center model 02032C

http://greenbayweathercam.com

High Low Average
Temperature 27.1°F-2.7°C 15.4°F-9.2°C 20.2°F-6.6°C
Dew Point 23.9°F-4.5°C 15.2°F-9.3°C 18.8°F-7.3°C
Winds 1.2 mph 1.9 kmh Calm Calm Calm SCalm S
Wind Gusts 3.5 mph5.6 kmh -- --
Humidity 99% 85% 95%
Pressure 29.63 in1003.4 mb 29.43 in996.6 mb -
Precipitation 0.00 in0.0 mm - -
Hour Temp Dew Point Humidity Winds Wind Gusts Pressure Precip Precip Rate Daily Precip Total
12:00 AM 18.5°F-7.5°C 15.8°F-9.0°C 89% 1.2 mph S1.9 kmh S 3.5 mph5.6 kmh 29.49 in998.6 mb - 0.00 in0.0 mm 0.00 in0.0 mm
12:15 AM 18.5°F-7.5°C 16.6°F-8.6°C 92% Calm Calm 1.2 mph1.9 kmh 29.48 in998.3 mb - 0.00 in0.0 mm 0.00 in0.0 mm
12:30 AM 18.5°F-7.5°C 16.6°F-8.6°C 92% Calm Calm -- 29.47 in998.0 mb - 0.00 in0.0 mm 0.00 in0.0 mm
12:45 AM 18.3°F-7.6°C 16.9°F-8.4°C 94% 1.2 mph SE1.9 kmh SE 1.2 mph1.9 kmh 29.47 in998.0 mb - 0.00 in0.0 mm 0.00 in0.0 mm
01:00 AM 18.3°F-7.6°C 16.6°F-8.6°C 93% 1.2 mph SE1.9 kmh SE 2.3 mph3.7 kmh 29.46 in997.6 mb - 0.00 in0.0 mm 0.00 in0.0 mm
01:15 AM 18.3°F-7.6°C 16.9°F-8.4°C 94% 1.2 mph SE1.9 kmh SE 1.2 mph1.9 kmh 29.46 in997.6 mb - 0.00 in0.0 mm 0.00 in0.0 mm
01:30 AM 18.1°F-7.7°C 16.4°F-8.7°C 93% 1.2 mph SE1.9 kmh SE 2.3 mph3.7 kmh 29.46 in997.6 mb - 0.00 in0.0 mm 0.00 in0.0 mm
01:45 AM 18.0°F-7.8°C 15.8°F-9.0°C 91% 1.2 mph S1.9 kmh S 2.3 mph3.7 kmh 29.45 in997.3 mb - 0.00 in0.0 mm 0.00 in0.0 mm
02:00 AM 17.8°F-7.9°C 15.6°F-9.1°C 91% Calm Calm 1.2 mph1.9 kmh 29.45 in997.3 mb - 0.00 in0.0 mm 0.00 in0.0 mm
02:15 AM 17.8°F-7.9°C 15.6°F-9.1°C 91% 1.2 mph SSW1.9 kmh SSW 2.3 mph3.7 kmh 29.45 in997.3 mb - 0.00 in0.0 mm 0.00 in0.0 mm
02:30 AM 17.8°F-7.9°C 15.9°F-8.9°C 92% 1.2 mph SSE1.9 kmh SSE 1.2 mph1.9 kmh 29.45 in997.3 mb - 0.00 in0.0 mm 0.00 in0.0 mm
02:45 AM 17.8°F-7.9°C 16.1°F-8.8°C 93% Calm Calm -- 29.45 in997.3 mb - 0.00 in0.0 mm 0.00 in0.0 mm
03:00 AM 17.8°F-7.9°C 16.6°F-8.6°C 95% 1.2 mph SE1.9 kmh SE 1.2 mph1.9 kmh 29.44 in997.0 mb - 0.00 in0.0 mm 0.00 in0.0 mm
03:15 AM 17.8°F-7.9°C 17.1°F-8.3°C 97% Calm Calm -- 29.44 in997.0 mb - 0.00 in0.0 mm 0.00 in0.0 mm
03:30 AM 17.8°F-7.9°C 17.1°F-8.3°C 97% 1.2 mph S1.9 kmh S 1.2 mph1.9 kmh 29.44 in997.0 mb - 0.00 in0.0 mm 0.00 in0.0 mm
03:45 AM 17.8°F-7.9°C 17.1°F-8.3°C 97% Calm Calm 1.2 mph1.9 kmh 29.44 in997.0 mb - 0.00 in0.0 mm 0.00 in0.0 mm
04:00 AM 17.8°F-7.9°C 17.1°F-8.3°C 97% Calm Calm -- 29.43 in996.6 mb - 0.00 in0.0 mm 0.00 in0.0 mm
04:15 AM 17.8°F-7.9°C 17.1°F-8.3°C 97% Calm Calm -- 29.43 in996.6 mb - 0.00 in0.0 mm 0.00 in0.0 mm
04:30 AM 18.0°F-7.8°C 17.3°F-8.2°C 97% Calm Calm -- 29.43 in996.6 mb - 0.00 in0.0 mm 0.00 in0.0 mm
04:45 AM 18.0°F-7.8°C 17.3°F-8.2°C 97% Calm Calm -- 29.43 in996.6 mb - 0.00 in0.0 mm 0.00 in0.0 mm
05:00 AM 18.1°F-7.7°C 17.4°F-8.1°C 97% Calm Calm -- 29.43 in996.6 mb - 0.00 in0.0 mm 0.00 in0.0 mm
05:15 AM 18.1°F-7.7°C 17.4°F-8.1°C 97% Calm Calm 1.2 mph1.9 kmh 29.43 in996.6 mb - 0.00 in0.0 mm 0.00 in0.0 mm
05:30 AM 18.1°F-7.7°C 17.4°F-8.1°C 97% 1.2 mph S1.9 kmh S 1.2 mph1.9 kmh 29.43 in996.6 mb - 0.00 in0.0 mm 0.00 in0.0 mm
05:45 AM 18.1°F-7.7°C 17.4°F-8.1°C 97% Calm Calm -- 29.43 in996.6 mb - 0.00 in0.0 mm 0.00 in0.0 mm
06:00 AM 18.0°F-7.8°C 17.3°F-8.2°C 97% Calm Calm -- 29.44 in997.0 mb - 0.00 in0.0 mm 0.00 in0.0 mm
06:15 AM 18.0°F-7.8°C 17.3°F-8.2°C 97% Calm Calm -- 29.44 in997.0 mb - 0.00 in0.0 mm 0.00 in0.0 mm
06:30 AM 18.0°F-7.8°C 17.3°F-8.2°C 97% Calm Calm -- 29.44 in997.0 mb - 0.00 in0.0 mm 0.00 in0.0 mm
06:45 AM 18.1°F-7.7°C 17.6°F-8.0°C 98% Calm Calm -- 29.44 in997.0 mb - 0.00 in0.0 mm 0.00 in0.0 mm
07:00 AM 18.1°F-7.7°C 17.6°F-8.0°C 98% Calm Calm -- 29.44 in997.0 mb - 0.00 in0.0 mm 0.00 in0.0 mm
07:15 AM 18.1°F-7.7°C 17.9°F-7.8°C 99% Calm Calm -- 29.44 in997.0 mb - 0.00 in0.0 mm 0.00 in0.0 mm
07:30 AM 18.1°F-7.7°C 17.9°F-7.8°C 99% Calm Calm -- 29.45 in997.3 mb - 0.00 in0.0 mm 0.00 in0.0 mm
07:45 AM 18.3°F-7.6°C 18.1°F-7.7°C 99% Calm Calm -- 29.45 in997.3 mb - 0.00 in0.0 mm 0.00 in0.0 mm
08:00 AM 18.5°F-7.5°C 18.3°F-7.6°C 99% Calm Calm -- 29.45 in997.3 mb - 0.00 in0.0 mm 0.00 in0.0 mm
08:15 AM 18.9°F-7.3°C 18.6°F-7.4°C 99% Calm Calm -- 29.45 in997.3 mb - 0.00 in0.0 mm 0.00 in0.0 mm
08:30 AM 19.2°F-7.1°C 19.0°F-7.2°C 99% Calm Calm -- 29.45 in997.3 mb - 0.00 in0.0 mm 0.00 in0.0 mm
08:45 AM 19.9°F-6.7°C 19.7°F-6.8°C 99% Calm Calm -- 29.45 in997.3 mb - 0.00 in0.0 mm 0.00 in0.0 mm
09:00 AM 20.8°F-6.2°C 20.3°F-6.5°C 98% Calm Calm -- 29.45 in997.3 mb - 0.00 in0.0 mm 0.00 in0.0 mm
09:15 AM 21.5°F-5.8°C 20.8°F-6.2°C 97% Calm Calm -- 29.46 in997.6 mb - 0.00 in0.0 mm 0.00 in0.0 mm
09:30 AM 22.3°F-5.4°C 21.1°F-6.1°C 95% Calm Calm -- 29.46 in997.6 mb - 0.00 in0.0 mm 0.00 in0.0 mm
09:45 AM 23.0°F-5.0°C 21.0°F-6.1°C 92% Calm Calm -- 29.46 in997.6 mb - 0.00 in0.0 mm 0.00 in0.0 mm
10:00 AM 24.0°F-4.4°C 21.7°F-5.7°C 91% Calm Calm -- 29.46 in997.6 mb - 0.00 in0.0 mm 0.00 in0.0 mm
10:15 AM 24.4°F-4.2°C 21.6°F-5.8°C 89% Calm Calm -- 29.46 in997.6 mb - 0.00 in0.0 mm 0.00 in0.0 mm
10:30 AM 25.2°F-3.8°C 22.4°F-5.3°C 89% Calm Calm -- 29.46 in997.6 mb - 0.00 in0.0 mm 0.00 in0.0 mm
10:45 AM 25.6°F-3.6°C 22.5°F-5.3°C 88% Calm Calm -- 29.46 in997.6 mb - 0.00 in0.0 mm 0.00 in0.0 mm
11:00 AM 25.9°F-3.4°C 23.1°F-4.9°C 89% Calm Calm -- 29.46 in997.6 mb - 0.00 in0.0 mm 0.00 in0.0 mm
11:15 AM 25.7°F-3.5°C 23.4°F-4.8°C 91% Calm Calm -- 29.46 in997.6 mb - 0.00 in0.0 mm 0.00 in0.0 mm
11:30 AM 25.9°F-3.4°C 23.6°F-4.7°C 91% Calm Calm -- 29.45 in997.3 mb - 0.00 in0.0 mm 0.00 in0.0 mm
11:45 AM 25.7°F-3.5°C 23.4°F-4.8°C 91% 1.2 mph SSE1.9 kmh SSE 2.3 mph3.7 kmh 29.45 in997.3 mb - 0.00 in0.0 mm 0.00 in0.0 mm
12:00 PM 26.4°F-3.1°C 23.3°F-4.8°C 88% 1.2 mph ENE1.9 kmh ENE 2.3 mph3.7 kmh 29.45 in997.3 mb - 0.00 in0.0 mm 0.00 in0.0 mm
12:15 PM 27.0°F-2.8°C 23.9°F-4.5°C 88% 1.2 mph SE1.9 kmh SE 2.3 mph3.7 kmh 29.45 in997.3 mb - 0.00 in0.0 mm 0.00 in0.0 mm
12:30 PM 27.0°F-2.8°C 23.6°F-4.7°C 87% 1.2 mph SE1.9 kmh SE 2.3 mph3.7 kmh 29.45 in997.3 mb - 0.00 in0.0 mm 0.00 in0.0 mm
12:45 PM 26.8°F-2.9°C 23.5°F-4.7°C 87% Calm Calm -- 29.45 in997.3 mb - 0.00 in0.0 mm 0.00 in0.0 mm
01:00 PM 26.8°F-2.9°C 23.4°F-4.8°C 87% Calm Calm -- 29.46 in997.6 mb - 0.00 in0.0 mm 0.00 in0.0 mm
01:15 PM 26.4°F-3.1°C 23.1°F-4.9°C 87% Calm Calm -- 29.46 in997.6 mb - 0.00 in0.0 mm 0.00 in0.0 mm
01:30 PM 26.6°F-3.0°C 23.3°F-4.8°C 87% Calm Calm -- 29.46 in997.6 mb - 0.00 in0.0 mm 0.00 in0.0 mm
01:45 PM 26.6°F-3.0°C 23.3°F-4.8°C 87% Calm Calm -- 29.46 in997.6 mb - 0.00 in0.0 mm 0.00 in0.0 mm
02:00 PM 26.3°F-3.2°C 22.9°F-5.1°C 87% Calm Calm -- 29.46 in997.6 mb - 0.00 in0.0 mm 0.00 in0.0 mm
02:15 PM 26.6°F-3.0°C 23.0°F-5.0°C 86% Calm Calm -- 29.47 in998.0 mb - 0.00 in0.0 mm 0.00 in0.0 mm
02:30 PM 27.1°F-2.7°C 23.2°F-4.9°C 85% Calm Calm -- 29.47 in998.0 mb - 0.00 in0.0 mm 0.00 in0.0 mm
02:45 PM 27.0°F-2.8°C 23.1°F-4.9°C 85% Calm Calm -- 29.48 in998.3 mb - 0.00 in0.0 mm 0.00 in0.0 mm
03:00 PM 26.4°F-3.1°C 23.1°F-4.9°C 87% Calm Calm -- 29.48 in998.3 mb - 0.00 in0.0 mm 0.00 in0.0 mm
03:15 PM 25.7°F-3.5°C 22.4°F-5.3°C 87% Calm Calm -- 29.50 in999.0 mb - 0.00 in0.0 mm 0.00 in0.0 mm
03:30 PM 25.2°F-3.8°C 22.5°F-5.3°C 89% Calm Calm -- 29.50 in999.0 mb - 0.00 in0.0 mm 0.00 in0.0 mm
03:45 PM 24.6°F-4.1°C 22.1°F-5.5°C 90% Calm Calm -- 29.51 in999.3 mb - 0.00 in0.0 mm 0.00 in0.0 mm
04:00 PM 23.9°F-4.5°C 21.7°F-5.7°C 91% Calm Calm -- 29.52 in999.7 mb - 0.00 in0.0 mm 0.00 in0.0 mm
04:15 PM 23.2°F-4.9°C 21.2°F-6.0°C 92% Calm Calm -- 29.52 in999.7 mb - 0.00 in0.0 mm 0.00 in0.0 mm
04:30 PM 22.3°F-5.4°C 20.5°F-6.4°C 93% Calm Calm -- 29.52 in999.7 mb - 0.00 in0.0 mm 0.00 in0.0 mm
04:45 PM 20.8°F-6.2°C 19.6°F-6.9°C 95% Calm Calm -- 29.53 in1000.0 mb - 0.00 in0.0 mm 0.00 in0.0 mm
05:00 PM 19.9°F-6.7°C 18.7°F-7.4°C 95% Calm Calm -- 29.54 in1000.3 mb - 0.00 in0.0 mm 0.00 in0.0 mm
05:15 PM 19.0°F-7.2°C 18.0°F-7.8°C 96% Calm Calm -- 29.55 in1000.7 mb - 0.00 in0.0 mm 0.00 in0.0 mm
05:30 PM 18.7°F-7.4°C 18.2°F-7.7°C 98% Calm Calm -- 29.55 in1000.7 mb - 0.00 in0.0 mm 0.00 in0.0 mm
05:45 PM 18.3°F-7.6°C 17.8°F-7.9°C 98% Calm Calm -- 29.55 in1000.7 mb - 0.00 in0.0 mm 0.00 in0.0 mm
06:00 PM 18.0°F-7.8°C 17.8°F-7.9°C 99% Calm Calm -- 29.56 in1001.0 mb - 0.00 in0.0 mm 0.00 in0.0 mm
06:15 PM 17.4°F-8.1°C 17.2°F-8.2°C 99% Calm Calm -- 29.57 in1001.4 mb - 0.00 in0.0 mm 0.00 in0.0 mm
06:30 PM 17.2°F-8.2°C 17.0°F-8.3°C 99% Calm Calm -- 29.57 in1001.4 mb - 0.00 in0.0 mm 0.00 in0.0 mm
06:45 PM 17.2°F-8.2°C 17.0°F-8.3°C 99% Calm Calm -- 29.57 in1001.4 mb - 0.00 in0.0 mm 0.00 in0.0 mm
07:00 PM 17.4°F-8.1°C 17.2°F-8.2°C 99% Calm Calm -- 29.57 in1001.4 mb - 0.00 in0.0 mm 0.00 in0.0 mm
07:15 PM 17.4°F-8.1°C 17.2°F-8.2°C 99% Calm Calm -- 29.58 in1001.7 mb - 0.00 in0.0 mm 0.00 in0.0 mm
07:30 PM 17.6°F-8.0°C 17.4°F-8.1°C 99% Calm Calm -- 29.58 in1001.7 mb - 0.00 in0.0 mm 0.00 in0.0 mm
07:45 PM 17.6°F-8.0°C 17.4°F-8.1°C 99% Calm Calm -- 29.59 in1002.0 mb - 0.00 in0.0 mm 0.00 in0.0 mm
08:00 PM 17.4°F-8.1°C 17.2°F-8.2°C 99% Calm Calm -- 29.58 in1001.7 mb - 0.00 in0.0 mm 0.00 in0.0 mm
08:15 PM 17.2°F-8.2°C 17.0°F-8.3°C 99% Calm Calm -- 29.59 in1002.0 mb - 0.00 in0.0 mm 0.00 in0.0 mm
08:30 PM 17.1°F-8.3°C 16.9°F-8.4°C 99% Calm Calm -- 29.59 in1002.0 mb - 0.00 in0.0 mm 0.00 in0.0 mm
08:45 PM 17.1°F-8.3°C 16.9°F-8.4°C 99% Calm Calm -- 29.60 in1002.4 mb - 0.00 in0.0 mm 0.00 in0.0 mm
09:00 PM 17.1°F-8.3°C 16.9°F-8.4°C 99% Calm Calm -- 29.60 in1002.4 mb - 0.00 in0.0 mm 0.00 in0.0 mm
09:15 PM 17.1°F-8.3°C 16.9°F-8.4°C 99% Calm Calm -- 29.60 in1002.4 mb - 0.00 in0.0 mm 0.00 in0.0 mm
09:30 PM 17.1°F-8.3°C 16.9°F-8.4°C 99% Calm Calm -- 29.61 in1002.7 mb - 0.00 in0.0 mm 0.00 in0.0 mm
09:45 PM 16.7°F-8.5°C 16.5°F-8.6°C 99% Calm Calm -- 29.61 in1002.7 mb - 0.00 in0.0 mm 0.00 in0.0 mm
10:00 PM 16.7°F-8.5°C 16.5°F-8.6°C 99% Calm Calm -- 29.61 in1002.7 mb - 0.00 in0.0 mm 0.00 in0.0 mm
10:15 PM 16.3°F-8.7°C 16.1°F-8.8°C 99% Calm Calm -- 29.62 in1003.0 mb - 0.00 in0.0 mm 0.00 in0.0 mm
10:30 PM 16.0°F-8.9°C 15.8°F-9.0°C 99% Calm Calm -- 29.62 in1003.0 mb - 0.00 in0.0 mm 0.00 in0.0 mm
10:45 PM 15.8°F-9.0°C 15.6°F-9.1°C 99% Calm Calm -- 29.62 in1003.0 mb - 0.00 in0.0 mm 0.00 in0.0 mm
11:00 PM 15.6°F-9.1°C 15.4°F-9.2°C 99% Calm Calm -- 29.63 in1003.4 mb - 0.00 in0.0 mm 0.00 in0.0 mm
11:15 PM 15.4°F-9.2°C 15.2°F-9.3°C 99% Calm Calm -- 29.63 in1003.4 mb - 0.00 in0.0 mm 0.00 in0.0 mm
11:30 PM 15.4°F-9.2°C 15.2°F-9.3°C 99% Calm Calm -- 29.62 in1003.0 mb - 0.00 in0.0 mm 0.00 in0.0 mm
11:45 PM 15.4°F-9.2°C 15.2°F-9.3°C 99% Calm Calm -- 29.62 in1003.0 mb - 0.00 in0.0 mm 0.00 in0.0 mm